sensor_id;sensor_type;location;lat;lon;timestamp;P1;durP1;ratioP1;P2;durP2;ratioP2
14760;SDS011;7472;45.396;5.272;2022-08-03T00:01:45;0.80;;;0.80;;
14760;SDS011;7472;45.396;5.272;2022-08-03T00:04:13;1.65;;;0.73;;
14760;SDS011;7472;45.396;5.272;2022-08-03T00:06:41;0.98;;;0.85;;
14760;SDS011;7472;45.396;5.272;2022-08-03T00:09:10;0.70;;;0.70;;
14760;SDS011;7472;45.396;5.272;2022-08-03T00:11:38;1.25;;;0.90;;
14760;SDS011;7472;45.396;5.272;2022-08-03T00:14:05;4.18;;;0.90;;
14760;SDS011;7472;45.396;5.272;2022-08-03T00:16:33;2.33;;;0.80;;
14760;SDS011;7472;45.396;5.272;2022-08-03T00:19:01;1.75;;;0.95;;
14760;SDS011;7472;45.396;5.272;2022-08-03T00:24:35;2.47;;;1.27;;
14760;SDS011;7472;45.396;5.272;2022-08-03T00:27:02;1.48;;;0.95;;
14760;SDS011;7472;45.396;5.272;2022-08-03T00:29:29;1.05;;;1.00;;
14760;SDS011;7472;45.396;5.272;2022-08-03T00:31:57;2.70;;;0.70;;
14760;SDS011;7472;45.396;5.272;2022-08-03T00:34:24;2.70;;;0.90;;
14760;SDS011;7472;45.396;5.272;2022-08-03T00:36:51;1.83;;;1.13;;
14760;SDS011;7472;45.396;5.272;2022-08-03T00:39:19;1.63;;;1.13;;
14760;SDS011;7472;45.396;5.272;2022-08-03T00:41:47;2.08;;;1.00;;
14760;SDS011;7472;45.396;5.272;2022-08-03T00:44:15;1.02;;;0.80;;
14760;SDS011;7472;45.396;5.272;2022-08-03T00:46:42;1.10;;;0.80;;
14760;SDS011;7472;45.396;5.272;2022-08-03T00:49:09;2.90;;;0.88;;
14760;SDS011;7472;45.396;5.272;2022-08-03T00:51:37;2.67;;;0.93;;
14760;SDS011;7472;45.396;5.272;2022-08-03T00:54:04;3.65;;;0.90;;
14760;SDS011;7472;45.396;5.272;2022-08-03T00:56:32;4.45;;;0.93;;
14760;SDS011;7472;45.396;5.272;2022-08-03T00:59:00;1.95;;;1.10;;
14760;SDS011;7472;45.396;5.272;2022-08-03T01:01:29;0.80;;;0.77;;
14760;SDS011;7472;45.396;5.272;2022-08-03T01:03:56;1.85;;;1.30;;
14760;SDS011;7472;45.396;5.272;2022-08-03T01:06:24;2.42;;;1.10;;
14760;SDS011;7472;45.396;5.272;2022-08-03T01:12:12;0.70;;;0.70;;
14760;SDS011;7472;45.396;5.272;2022-08-03T01:14:43;1.23;;;0.85;;
14760;SDS011;7472;45.396;5.272;2022-08-03T01:17:13;1.33;;;0.95;;
14760;SDS011;7472;45.396;5.272;2022-08-03T01:19:44;2.88;;;1.05;;
14760;SDS011;7472;45.396;5.272;2022-08-03T01:22:19;1.50;;;0.90;;
14760;SDS011;7472;45.396;5.272;2022-08-03T01:24:49;3.33;;;0.75;;
14760;SDS011;7472;45.396;5.272;2022-08-03T01:27:24;1.23;;;1.00;;
14760;SDS011;7472;45.396;5.272;2022-08-03T01:29:58;3.13;;;0.85;;
14760;SDS011;7472;45.396;5.272;2022-08-03T01:32:28;0.95;;;0.85;;
14760;SDS011;7472;45.396;5.272;2022-08-03T01:34:59;1.30;;;0.90;;
14760;SDS011;7472;45.396;5.272;2022-08-03T01:37:30;1.23;;;1.17;;
14760;SDS011;7472;45.396;5.272;2022-08-03T01:39:58;1.70;;;0.95;;
14760;SDS011;7472;45.396;5.272;2022-08-03T01:42:27;2.78;;;0.93;;
14760;SDS011;7472;45.396;5.272;2022-08-03T01:44:55;1.48;;;0.90;;
14760;SDS011;7472;45.396;5.272;2022-08-03T01:47:24;2.75;;;0.90;;
14760;SDS011;7472;45.396;5.272;2022-08-03T01:49:53;2.05;;;1.05;;
14760;SDS011;7472;45.396;5.272;2022-08-03T01:52:21;3.50;;;0.93;;
14760;SDS011;7472;45.396;5.272;2022-08-03T01:54:50;3.88;;;1.02;;
14760;SDS011;7472;45.396;5.272;2022-08-03T01:57:18;3.13;;;1.00;;
14760;SDS011;7472;45.396;5.272;2022-08-03T01:59:46;3.03;;;0.70;;
14760;SDS011;7472;45.396;5.272;2022-08-03T02:02:15;2.47;;;1.10;;
14760;SDS011;7472;45.396;5.272;2022-08-03T02:04:44;7.07;;;1.23;;
14760;SDS011;7472;45.396;5.272;2022-08-03T02:07:13;0.88;;;0.88;;
14760;SDS011;7472;45.396;5.272;2022-08-03T02:09:41;0.98;;;0.90;;
14760;SDS011;7472;45.396;5.272;2022-08-03T02:12:10;1.58;;;1.15;;
14760;SDS011;7472;45.396;5.272;2022-08-03T02:14:38;1.73;;;0.90;;
14760;SDS011;7472;45.396;5.272;2022-08-03T02:17:06;1.02;;;0.90;;
14760;SDS011;7472;45.396;5.272;2022-08-03T02:19:34;1.17;;;1.08;;
14760;SDS011;7472;45.396;5.272;2022-08-03T02:22:03;1.42;;;1.00;;
14760;SDS011;7472;45.396;5.272;2022-08-03T02:24:31;4.88;;;0.90;;
14760;SDS011;7472;45.396;5.272;2022-08-03T02:26:58;2.58;;;0.80;;
14760;SDS011;7472;45.396;5.272;2022-08-03T02:29:28;2.60;;;1.38;;
14760;SDS011;7472;45.396;5.272;2022-08-03T02:31:58;3.88;;;1.05;;
14760;SDS011;7472;45.396;5.272;2022-08-03T02:34:28;3.42;;;1.27;;
14760;SDS011;7472;45.396;5.272;2022-08-03T02:36:57;3.92;;;1.00;;
14760;SDS011;7472;45.396;5.272;2022-08-03T02:39:27;1.25;;;1.00;;
14760;SDS011;7472;45.396;5.272;2022-08-03T02:41:56;1.52;;;0.93;;
14760;SDS011;7472;45.396;5.272;2022-08-03T02:44:26;2.60;;;1.08;;
14760;SDS011;7472;45.396;5.272;2022-08-03T02:46:54;1.35;;;0.70;;
14760;SDS011;7472;45.396;5.272;2022-08-03T02:49:23;1.13;;;1.02;;
14760;SDS011;7472;45.396;5.272;2022-08-03T02:51:51;1.50;;;1.10;;
14760;SDS011;7472;45.396;5.272;2022-08-03T02:54:19;1.27;;;1.10;;
14760;SDS011;7472;45.396;5.272;2022-08-03T02:56:49;1.20;;;0.85;;
14760;SDS011;7472;45.396;5.272;2022-08-03T02:59:18;1.45;;;1.00;;
14760;SDS011;7472;45.396;5.272;2022-08-03T03:01:46;2.15;;;1.05;;
14760;SDS011;7472;45.396;5.272;2022-08-03T03:04:13;1.80;;;1.00;;
14760;SDS011;7472;45.396;5.272;2022-08-03T03:06:41;2.28;;;1.13;;
14760;SDS011;7472;45.396;5.272;2022-08-03T03:09:09;1.77;;;1.40;;
14760;SDS011;7472;45.396;5.272;2022-08-03T03:11:37;1.55;;;1.30;;
14760;SDS011;7472;45.396;5.272;2022-08-03T03:14:06;2.78;;;1.30;;
14760;SDS011;7472;45.396;5.272;2022-08-03T03:16:35;1.17;;;0.95;;
14760;SDS011;7472;45.396;5.272;2022-08-03T03:19:02;2.45;;;0.88;;
14760;SDS011;7472;45.396;5.272;2022-08-03T03:21:30;1.45;;;1.35;;
14760;SDS011;7472;45.396;5.272;2022-08-03T03:23:58;1.10;;;1.00;;
14760;SDS011;7472;45.396;5.272;2022-08-03T03:26:25;2.00;;;0.90;;
14760;SDS011;7472;45.396;5.272;2022-08-03T03:28:53;1.83;;;1.10;;
14760;SDS011;7472;45.396;5.272;2022-08-03T03:31:22;1.98;;;1.20;;
14760;SDS011;7472;45.396;5.272;2022-08-03T03:33:50;3.08;;;1.10;;
14760;SDS011;7472;45.396;5.272;2022-08-03T03:36:17;1.02;;;0.93;;
14760;SDS011;7472;45.396;5.272;2022-08-03T03:38:44;2.17;;;1.23;;
14760;SDS011;7472;45.396;5.272;2022-08-03T03:41:12;2.55;;;1.20;;
14760;SDS011;7472;45.396;5.272;2022-08-03T03:43:39;1.35;;;0.73;;
14760;SDS011;7472;45.396;5.272;2022-08-03T03:46:06;1.48;;;1.17;;
14760;SDS011;7472;45.396;5.272;2022-08-03T03:48:35;1.45;;;1.17;;
14760;SDS011;7472;45.396;5.272;2022-08-03T03:51:03;1.75;;;1.10;;
14760;SDS011;7472;45.396;5.272;2022-08-03T03:53:30;2.67;;;1.20;;
14760;SDS011;7472;45.396;5.272;2022-08-03T03:55:58;1.60;;;1.10;;
14760;SDS011;7472;45.396;5.272;2022-08-03T03:58:25;3.80;;;1.27;;
14760;SDS011;7472;45.396;5.272;2022-08-03T04:00:52;1.55;;;1.30;;
14760;SDS011;7472;45.396;5.272;2022-08-03T04:03:20;2.75;;;1.45;;
14760;SDS011;7472;45.396;5.272;2022-08-03T04:05:48;5.88;;;1.42;;
14760;SDS011;7472;45.396;5.272;2022-08-03T04:08:33;6.28;;;1.55;;
14760;SDS011;7472;45.396;5.272;2022-08-03T04:11:19;1.88;;;1.40;;
14760;SDS011;7472;45.396;5.272;2022-08-03T04:13:48;4.28;;;1.35;;
14760;SDS011;7472;45.396;5.272;2022-08-03T04:16:17;3.03;;;1.55;;
14760;SDS011;7472;45.396;5.272;2022-08-03T04:18:45;2.63;;;1.58;;
14760;SDS011;7472;45.396;5.272;2022-08-03T04:21:15;3.90;;;1.65;;
14760;SDS011;7472;45.396;5.272;2022-08-03T04:23:46;3.45;;;2.00;;
14760;SDS011;7472;45.396;5.272;2022-08-03T04:26:15;3.35;;;1.73;;
14760;SDS011;7472;45.396;5.272;2022-08-03T04:28:45;1.90;;;1.50;;
14760;SDS011;7472;45.396;5.272;2022-08-03T04:31:13;4.45;;;1.63;;
14760;SDS011;7472;45.396;5.272;2022-08-03T04:33:42;3.13;;;1.48;;
14760;SDS011;7472;45.396;5.272;2022-08-03T04:36:11;2.20;;;1.50;;
14760;SDS011;7472;45.396;5.272;2022-08-03T04:38:43;4.43;;;1.27;;
14760;SDS011;7472;45.396;5.272;2022-08-03T04:41:11;4.20;;;1.02;;
14760;SDS011;7472;45.396;5.272;2022-08-03T04:43:39;2.75;;;1.50;;
14760;SDS011;7472;45.396;5.272;2022-08-03T04:46:06;3.42;;;1.50;;
14760;SDS011;7472;45.396;5.272;2022-08-03T04:48:34;3.22;;;1.50;;
14760;SDS011;7472;45.396;5.272;2022-08-03T04:51:01;5.07;;;1.75;;
14760;SDS011;7472;45.396;5.272;2022-08-03T04:53:29;3.55;;;1.60;;
14760;SDS011;7472;45.396;5.272;2022-08-03T04:56:04;7.68;;;1.73;;
14760;SDS011;7472;45.396;5.272;2022-08-03T04:58:31;3.25;;;1.50;;
14760;SDS011;7472;45.396;5.272;2022-08-03T05:00:59;2.38;;;1.50;;
14760;SDS011;7472;45.396;5.272;2022-08-03T05:03:26;3.47;;;1.20;;
14760;SDS011;7472;45.396;5.272;2022-08-03T05:05:54;5.85;;;1.60;;
14760;SDS011;7472;45.396;5.272;2022-08-03T05:08:21;4.40;;;1.67;;
14760;SDS011;7472;45.396;5.272;2022-08-03T05:10:48;3.00;;;1.60;;
14760;SDS011;7472;45.396;5.272;2022-08-03T05:13:17;1.98;;;1.05;;
14760;SDS011;7472;45.396;5.272;2022-08-03T05:15:45;2.83;;;1.48;;
14760;SDS011;7472;45.396;5.272;2022-08-03T05:18:12;3.28;;;1.55;;
14760;SDS011;7472;45.396;5.272;2022-08-03T05:20:39;3.80;;;1.85;;
14760;SDS011;7472;45.396;5.272;2022-08-03T05:23:07;3.88;;;1.60;;
14760;SDS011;7472;45.396;5.272;2022-08-03T05:25:34;7.25;;;1.80;;
14760;SDS011;7472;45.396;5.272;2022-08-03T05:28:01;2.42;;;1.45;;
14760;SDS011;7472;45.396;5.272;2022-08-03T05:30:30;3.28;;;1.45;;
14760;SDS011;7472;45.396;5.272;2022-08-03T05:32:58;2.97;;;1.65;;
14760;SDS011;7472;45.396;5.272;2022-08-03T05:35:25;1.60;;;1.50;;
14760;SDS011;7472;45.396;5.272;2022-08-03T05:37:53;6.32;;;1.70;;
14760;SDS011;7472;45.396;5.272;2022-08-03T05:40:20;3.92;;;1.50;;
14760;SDS011;7472;45.396;5.272;2022-08-03T05:42:47;3.90;;;1.48;;
14760;SDS011;7472;45.396;5.272;2022-08-03T05:45:15;3.10;;;1.48;;
14760;SDS011;7472;45.396;5.272;2022-08-03T05:47:44;5.50;;;1.50;;
14760;SDS011;7472;45.396;5.272;2022-08-03T05:50:12;2.65;;;1.45;;
14760;SDS011;7472;45.396;5.272;2022-08-03T05:52:40;2.72;;;1.52;;
14760;SDS011;7472;45.396;5.272;2022-08-03T05:55:08;5.40;;;1.30;;
14760;SDS011;7472;45.396;5.272;2022-08-03T05:57:36;3.47;;;1.65;;
14760;SDS011;7472;45.396;5.272;2022-08-03T06:00:04;5.28;;;1.60;;
14760;SDS011;7472;45.396;5.272;2022-08-03T06:02:31;2.03;;;1.40;;
14760;SDS011;7472;45.396;5.272;2022-08-03T06:05:00;1.48;;;1.38;;
14760;SDS011;7472;45.396;5.272;2022-08-03T06:07:28;4.28;;;1.38;;
14760;SDS011;7472;45.396;5.272;2022-08-03T06:09:55;4.78;;;1.85;;
14760;SDS011;7472;45.396;5.272;2022-08-03T06:12:23;3.65;;;1.40;;
14760;SDS011;7472;45.396;5.272;2022-08-03T06:14:50;2.28;;;1.40;;
14760;SDS011;7472;45.396;5.272;2022-08-03T06:17:17;2.00;;;1.30;;
14760;SDS011;7472;45.396;5.272;2022-08-03T06:19:45;4.85;;;1.63;;
14760;SDS011;7472;45.396;5.272;2022-08-03T06:22:14;2.70;;;1.70;;
14760;SDS011;7472;45.396;5.272;2022-08-03T06:24:41;5.18;;;1.25;;
14760;SDS011;7472;45.396;5.272;2022-08-03T06:27:08;2.30;;;1.30;;
14760;SDS011;7472;45.396;5.272;2022-08-03T06:29:36;4.22;;;1.92;;
14760;SDS011;7472;45.396;5.272;2022-08-03T06:32:03;5.00;;;1.67;;
14760;SDS011;7472;45.396;5.272;2022-08-03T06:34:31;2.75;;;1.30;;
14760;SDS011;7472;45.396;5.272;2022-08-03T06:36:58;1.05;;;0.95;;
14760;SDS011;7472;45.396;5.272;2022-08-03T06:39:27;6.43;;;1.25;;
14760;SDS011;7472;45.396;5.272;2022-08-03T06:41:54;1.77;;;1.33;;
14760;SDS011;7472;45.396;5.272;2022-08-03T06:44:22;13.02;;;2.05;;
14760;SDS011;7472;45.396;5.272;2022-08-03T06:46:49;9.20;;;2.05;;
14760;SDS011;7472;45.396;5.272;2022-08-03T06:49:17;4.32;;;1.50;;
14760;SDS011;7472;45.396;5.272;2022-08-03T06:51:44;1.40;;;1.30;;
14760;SDS011;7472;45.396;5.272;2022-08-03T06:54:11;1.80;;;1.20;;
14760;SDS011;7472;45.396;5.272;2022-08-03T06:56:40;1.80;;;1.45;;
14760;SDS011;7472;45.396;5.272;2022-08-03T06:59:07;2.63;;;1.45;;
14760;SDS011;7472;45.396;5.272;2022-08-03T07:01:35;4.80;;;1.45;;
14760;SDS011;7472;45.396;5.272;2022-08-03T07:04:02;3.17;;;1.58;;
14760;SDS011;7472;45.396;5.272;2022-08-03T07:06:30;4.63;;;1.20;;
14760;SDS011;7472;45.396;5.272;2022-08-03T07:08:57;5.18;;;1.50;;
14760;SDS011;7472;45.396;5.272;2022-08-03T07:11:24;6.75;;;1.23;;
14760;SDS011;7472;45.396;5.272;2022-08-03T07:13:54;3.85;;;1.48;;
14760;SDS011;7472;45.396;5.272;2022-08-03T07:16:21;3.15;;;1.27;;
14760;SDS011;7472;45.396;5.272;2022-08-03T07:18:49;1.52;;;1.20;;
14760;SDS011;7472;45.396;5.272;2022-08-03T07:21:16;2.67;;;1.25;;
14760;SDS011;7472;45.396;5.272;2022-08-03T07:23:43;3.15;;;1.40;;
14760;SDS011;7472;45.396;5.272;2022-08-03T07:26:11;1.70;;;1.13;;
14760;SDS011;7472;45.396;5.272;2022-08-03T07:28:38;1.65;;;1.20;;
14760;SDS011;7472;45.396;5.272;2022-08-03T07:31:07;2.10;;;1.08;;
14760;SDS011;7472;45.396;5.272;2022-08-03T07:33:34;4.53;;;1.35;;
14760;SDS011;7472;45.396;5.272;2022-08-03T07:36:02;4.22;;;1.05;;
14760;SDS011;7472;45.396;5.272;2022-08-03T07:38:29;3.28;;;0.90;;
14760;SDS011;7472;45.396;5.272;2022-08-03T07:40:56;3.50;;;1.20;;
14760;SDS011;7472;45.396;5.272;2022-08-03T07:43:24;3.15;;;1.40;;
14760;SDS011;7472;45.396;5.272;2022-08-03T07:45:51;6.03;;;1.40;;
14760;SDS011;7472;45.396;5.272;2022-08-03T07:48:20;1.67;;;1.17;;
14760;SDS011;7472;45.396;5.272;2022-08-03T07:50:47;3.58;;;1.40;;
14760;SDS011;7472;45.396;5.272;2022-08-03T07:53:15;2.08;;;0.95;;
14760;SDS011;7472;45.396;5.272;2022-08-03T07:55:43;5.53;;;1.00;;
14760;SDS011;7472;45.396;5.272;2022-08-03T07:58:11;2.92;;;1.10;;
14760;SDS011;7472;45.396;5.272;2022-08-03T08:00:40;4.55;;;1.27;;
14760;SDS011;7472;45.396;5.272;2022-08-03T08:03:08;3.22;;;0.90;;
14760;SDS011;7472;45.396;5.272;2022-08-03T08:05:37;5.38;;;1.15;;
14760;SDS011;7472;45.396;5.272;2022-08-03T08:08:05;1.98;;;1.15;;
14760;SDS011;7472;45.396;5.272;2022-08-03T08:10:32;5.75;;;1.08;;
14760;SDS011;7472;45.396;5.272;2022-08-03T08:13:00;3.80;;;0.98;;
14760;SDS011;7472;45.396;5.272;2022-08-03T08:15:28;3.90;;;1.30;;
14760;SDS011;7472;45.396;5.272;2022-08-03T08:17:56;2.03;;;1.00;;
14760;SDS011;7472;45.396;5.272;2022-08-03T08:20:24;3.40;;;0.80;;
14760;SDS011;7472;45.396;5.272;2022-08-03T08:22:53;1.80;;;1.00;;
14760;SDS011;7472;45.396;5.272;2022-08-03T08:25:21;0.88;;;0.80;;
14760;SDS011;7472;45.396;5.272;2022-08-03T08:27:49;1.40;;;1.00;;
14760;SDS011;7472;45.396;5.272;2022-08-03T08:30:17;0.98;;;0.75;;
14760;SDS011;7472;45.396;5.272;2022-08-03T08:32:44;4.68;;;0.90;;
14760;SDS011;7472;45.396;5.272;2022-08-03T08:35:12;1.45;;;0.80;;
14760;SDS011;7472;45.396;5.272;2022-08-03T08:37:40;5.32;;;1.27;;
14760;SDS011;7472;45.396;5.272;2022-08-03T08:40:09;4.15;;;1.13;;
14760;SDS011;7472;45.396;5.272;2022-08-03T08:42:37;0.70;;;0.60;;
14760;SDS011;7472;45.396;5.272;2022-08-03T08:45:05;1.23;;;0.90;;
14760;SDS011;7472;45.396;5.272;2022-08-03T08:47:35;1.17;;;0.98;;
14760;SDS011;7472;45.396;5.272;2022-08-03T08:50:03;1.35;;;1.00;;
14760;SDS011;7472;45.396;5.272;2022-08-03T08:52:31;2.70;;;0.95;;
14760;SDS011;7472;45.396;5.272;2022-08-03T08:54:59;1.23;;;1.13;;
14760;SDS011;7472;45.396;5.272;2022-08-03T08:57:29;2.83;;;1.00;;
14760;SDS011;7472;45.396;5.272;2022-08-03T08:59:58;5.53;;;1.30;;
14760;SDS011;7472;45.396;5.272;2022-08-03T09:02:28;1.40;;;1.30;;
14760;SDS011;7472;45.396;5.272;2022-08-03T09:04:56;1.25;;;1.10;;
14760;SDS011;7472;45.396;5.272;2022-08-03T09:07:24;2.70;;;1.00;;
14760;SDS011;7472;45.396;5.272;2022-08-03T09:09:51;3.03;;;1.02;;
14760;SDS011;7472;45.396;5.272;2022-08-03T09:12:18;1.10;;;1.00;;
14760;SDS011;7472;45.396;5.272;2022-08-03T09:14:47;2.45;;;1.10;;
14760;SDS011;7472;45.396;5.272;2022-08-03T09:17:15;1.00;;;0.90;;
14760;SDS011;7472;45.396;5.272;2022-08-03T09:19:43;1.00;;;0.95;;
14760;SDS011;7472;45.396;5.272;2022-08-03T09:22:29;3.03;;;1.25;;
14760;SDS011;7472;45.396;5.272;2022-08-03T09:24:58;4.20;;;1.20;;
14760;SDS011;7472;45.396;5.272;2022-08-03T09:27:28;2.13;;;1.30;;
14760;SDS011;7472;45.396;5.272;2022-08-03T09:29:57;5.35;;;1.45;;
14760;SDS011;7472;45.396;5.272;2022-08-03T09:32:24;1.42;;;1.02;;
14760;SDS011;7472;45.396;5.272;2022-08-03T09:34:52;3.33;;;1.23;;
14760;SDS011;7472;45.396;5.272;2022-08-03T09:37:19;2.47;;;1.40;;
14760;SDS011;7472;45.396;5.272;2022-08-03T09:39:49;6.50;;;1.30;;
14760;SDS011;7472;45.396;5.272;2022-08-03T09:42:17;1.40;;;1.30;;
14760;SDS011;7472;45.396;5.272;2022-08-03T09:44:47;3.22;;;1.25;;
14760;SDS011;7472;45.396;5.272;2022-08-03T09:47:25;2.88;;;1.20;;
14760;SDS011;7472;45.396;5.272;2022-08-03T09:49:56;3.13;;;1.35;;
14760;SDS011;7472;45.396;5.272;2022-08-03T09:52:29;1.75;;;1.20;;
14760;SDS011;7472;45.396;5.272;2022-08-03T09:54:57;3.13;;;1.00;;
14760;SDS011;7472;45.396;5.272;2022-08-03T09:57:28;3.92;;;1.40;;
14760;SDS011;7472;45.396;5.272;2022-08-03T10:00:05;4.25;;;1.30;;
14760;SDS011;7472;45.396;5.272;2022-08-03T10:02:35;2.30;;;0.88;;
14760;SDS011;7472;45.396;5.272;2022-08-03T10:05:03;1.48;;;1.15;;
14760;SDS011;7472;45.396;5.272;2022-08-03T10:07:40;3.70;;;1.42;;
14760;SDS011;7472;45.396;5.272;2022-08-03T10:10:08;6.47;;;1.30;;
14760;SDS011;7472;45.396;5.272;2022-08-03T10:12:36;3.45;;;1.48;;
14760;SDS011;7472;45.396;5.272;2022-08-03T10:15:03;2.55;;;1.10;;
14760;SDS011;7472;45.396;5.272;2022-08-03T10:17:31;1.80;;;1.10;;
14760;SDS011;7472;45.396;5.272;2022-08-03T10:19:59;7.28;;;1.60;;
14760;SDS011;7472;45.396;5.272;2022-08-03T10:22:28;1.52;;;1.40;;
14760;SDS011;7472;45.396;5.272;2022-08-03T10:24:58;4.00;;;1.55;;
14760;SDS011;7472;45.396;5.272;2022-08-03T10:27:28;4.05;;;1.50;;
14760;SDS011;7472;45.396;5.272;2022-08-03T10:29:59;2.85;;;1.60;;
14760;SDS011;7472;45.396;5.272;2022-08-03T10:32:29;1.40;;;1.30;;
14760;SDS011;7472;45.396;5.272;2022-08-03T10:34:58;1.67;;;0.98;;
14760;SDS011;7472;45.396;5.272;2022-08-03T10:37:31;3.15;;;1.80;;
14760;SDS011;7472;45.396;5.272;2022-08-03T10:39:59;1.63;;;1.17;;
14760;SDS011;7472;45.396;5.272;2022-08-03T10:42:27;4.53;;;1.80;;
14760;SDS011;7472;45.396;5.272;2022-08-03T10:44:59;1.88;;;1.33;;
14760;SDS011;7472;45.396;5.272;2022-08-03T10:47:29;2.90;;;1.67;;
14760;SDS011;7472;45.396;5.272;2022-08-03T10:49:56;1.40;;;1.30;;
14760;SDS011;7472;45.396;5.272;2022-08-03T10:52:24;1.67;;;1.58;;
14760;SDS011;7472;45.396;5.272;2022-08-03T10:54:53;1.75;;;1.65;;
14760;SDS011;7472;45.396;5.272;2022-08-03T10:57:45;1.50;;;1.40;;
14760;SDS011;7472;45.396;5.272;2022-08-03T11:00:13;2.05;;;1.63;;
14760;SDS011;7472;45.396;5.272;2022-08-03T11:05:43;1.88;;;1.50;;
14760;SDS011;7472;45.396;5.272;2022-08-03T11:08:17;1.55;;;1.33;;
14760;SDS011;7472;45.396;5.272;2022-08-03T11:10:48;2.85;;;1.50;;
14760;SDS011;7472;45.396;5.272;2022-08-03T11:13:17;3.13;;;1.60;;
14760;SDS011;7472;45.396;5.272;2022-08-03T11:15:45;2.78;;;1.38;;
14760;SDS011;7472;45.396;5.272;2022-08-03T11:18:13;4.30;;;1.45;;
14760;SDS011;7472;45.396;5.272;2022-08-03T11:20:47;2.22;;;1.52;;
14760;SDS011;7472;45.396;5.272;2022-08-03T11:23:15;6.20;;;1.52;;
14760;SDS011;7472;45.396;5.272;2022-08-03T11:28:31;3.38;;;1.45;;
14760;SDS011;7472;45.396;5.272;2022-08-03T11:33:40;1.60;;;1.50;;
14760;SDS011;7472;45.396;5.272;2022-08-03T11:36:11;2.13;;;1.33;;
14760;SDS011;7472;45.396;5.272;2022-08-03T11:41:31;3.15;;;1.70;;
14760;SDS011;7472;45.396;5.272;2022-08-03T11:44:01;1.45;;;1.35;;
14760;SDS011;7472;45.396;5.272;2022-08-03T11:46:28;2.33;;;1.58;;
14760;SDS011;7472;45.396;5.272;2022-08-03T11:49:03;6.47;;;1.70;;
14760;SDS011;7472;45.396;5.272;2022-08-03T11:51:31;1.42;;;1.33;;
14760;SDS011;7472;45.396;5.272;2022-08-03T11:53:59;2.92;;;1.50;;
14760;SDS011;7472;45.396;5.272;2022-08-03T11:56:27;2.67;;;1.40;;
14760;SDS011;7472;45.396;5.272;2022-08-03T11:58:55;2.40;;;1.40;;
14760;SDS011;7472;45.396;5.272;2022-08-03T12:01:25;4.00;;;1.30;;
14760;SDS011;7472;45.396;5.272;2022-08-03T12:03:56;1.58;;;1.40;;
14760;SDS011;7472;45.396;5.272;2022-08-03T12:06:29;1.80;;;1.45;;
14760;SDS011;7472;45.396;5.272;2022-08-03T12:09:16;4.82;;;1.70;;
14760;SDS011;7472;45.396;5.272;2022-08-03T12:11:46;3.55;;;1.40;;
14760;SDS011;7472;45.396;5.272;2022-08-03T12:14:15;1.77;;;1.30;;
14760;SDS011;7472;45.396;5.272;2022-08-03T12:16:47;1.20;;;1.10;;
14760;SDS011;7472;45.396;5.272;2022-08-03T12:19:14;2.45;;;1.60;;
14760;SDS011;7472;45.396;5.272;2022-08-03T12:21:45;2.95;;;1.58;;
14760;SDS011;7472;45.396;5.272;2022-08-03T12:24:13;2.85;;;1.42;;
14760;SDS011;7472;45.396;5.272;2022-08-03T12:26:44;3.53;;;1.42;;
14760;SDS011;7472;45.396;5.272;2022-08-03T12:29:15;4.85;;;1.80;;
14760;SDS011;7472;45.396;5.272;2022-08-03T12:31:43;3.10;;;1.40;;
14760;SDS011;7472;45.396;5.272;2022-08-03T12:34:12;1.15;;;1.00;;
14760;SDS011;7472;45.396;5.272;2022-08-03T12:36:48;3.60;;;1.38;;
14760;SDS011;7472;45.396;5.272;2022-08-03T12:39:16;1.20;;;1.10;;
14760;SDS011;7472;45.396;5.272;2022-08-03T12:41:43;3.13;;;1.05;;
14760;SDS011;7472;45.396;5.272;2022-08-03T12:44:11;1.10;;;1.05;;
14760;SDS011;7472;45.396;5.272;2022-08-03T12:46:39;4.35;;;1.20;;
14760;SDS011;7472;45.396;5.272;2022-08-03T12:54:26;3.30;;;1.38;;
14760;SDS011;7472;45.396;5.272;2022-08-03T12:56:58;3.83;;;1.35;;
14760;SDS011;7472;45.396;5.272;2022-08-03T12:59:26;3.40;;;1.52;;
14760;SDS011;7472;45.396;5.272;2022-08-03T13:01:54;2.83;;;1.30;;
14760;SDS011;7472;45.396;5.272;2022-08-03T13:04:25;2.25;;;1.20;;
14760;SDS011;7472;45.396;5.272;2022-08-03T13:06:56;2.53;;;1.27;;
14760;SDS011;7472;45.396;5.272;2022-08-03T13:09:23;2.88;;;1.40;;
14760;SDS011;7472;45.396;5.272;2022-08-03T13:14:36;3.40;;;1.08;;
14760;SDS011;7472;45.396;5.272;2022-08-03T13:17:03;2.75;;;1.48;;
14760;SDS011;7472;45.396;5.272;2022-08-03T13:19:31;3.60;;;1.40;;
14760;SDS011;7472;45.396;5.272;2022-08-03T13:21:59;3.78;;;1.10;;
14760;SDS011;7472;45.396;5.272;2022-08-03T13:24:27;1.23;;;1.13;;
14760;SDS011;7472;45.396;5.272;2022-08-03T13:26:54;0.93;;;0.80;;
14760;SDS011;7472;45.396;5.272;2022-08-03T13:29:21;2.33;;;1.10;;
14760;SDS011;7472;45.396;5.272;2022-08-03T13:31:51;2.95;;;1.20;;
14760;SDS011;7472;45.396;5.272;2022-08-03T13:34:18;1.20;;;0.90;;
14760;SDS011;7472;45.396;5.272;2022-08-03T13:36:47;3.35;;;1.27;;
14760;SDS011;7472;45.396;5.272;2022-08-03T13:39:14;2.55;;;1.10;;
14760;SDS011;7472;45.396;5.272;2022-08-03T13:41:43;1.65;;;1.35;;
14760;SDS011;7472;45.396;5.272;2022-08-03T13:44:11;1.90;;;1.05;;
14760;SDS011;7472;45.396;5.272;2022-08-03T13:46:38;1.40;;;1.25;;
14760;SDS011;7472;45.396;5.272;2022-08-03T13:49:07;2.67;;;1.20;;
14760;SDS011;7472;45.396;5.272;2022-08-03T13:51:35;5.78;;;1.00;;
14760;SDS011;7472;45.396;5.272;2022-08-03T13:54:02;2.15;;;1.10;;
14760;SDS011;7472;45.396;5.272;2022-08-03T13:56:30;3.22;;;1.10;;
14760;SDS011;7472;45.396;5.272;2022-08-03T13:58:57;3.75;;;1.13;;
14760;SDS011;7472;45.396;5.272;2022-08-03T14:01:24;1.95;;;1.02;;
14760;SDS011;7472;45.396;5.272;2022-08-03T14:03:52;2.97;;;1.13;;
14760;SDS011;7472;45.396;5.272;2022-08-03T14:06:22;2.30;;;1.20;;
14760;SDS011;7472;45.396;5.272;2022-08-03T14:08:53;1.67;;;1.38;;
14760;SDS011;7472;45.396;5.272;2022-08-03T14:11:20;2.75;;;1.50;;
14760;SDS011;7472;45.396;5.272;2022-08-03T14:13:47;1.23;;;1.13;;
14760;SDS011;7472;45.396;5.272;2022-08-03T14:16:15;2.58;;;1.38;;
14760;SDS011;7472;45.396;5.272;2022-08-03T14:18:42;3.10;;;1.30;;
14760;SDS011;7472;45.396;5.272;2022-08-03T14:21:10;1.67;;;1.02;;
14760;SDS011;7472;45.396;5.272;2022-08-03T14:23:39;3.85;;;1.13;;
14760;SDS011;7472;45.396;5.272;2022-08-03T14:26:07;1.10;;;1.00;;
14760;SDS011;7472;45.396;5.272;2022-08-03T14:28:37;0.95;;;0.95;;
14760;SDS011;7472;45.396;5.272;2022-08-03T14:31:04;4.22;;;1.30;;
14760;SDS011;7472;45.396;5.272;2022-08-03T14:33:32;1.85;;;1.15;;
14760;SDS011;7472;45.396;5.272;2022-08-03T14:35:59;1.42;;;1.30;;
14760;SDS011;7472;45.396;5.272;2022-08-03T14:38:27;2.55;;;1.10;;
14760;SDS011;7472;45.396;5.272;2022-08-03T14:40:57;4.43;;;1.00;;
14760;SDS011;7472;45.396;5.272;2022-08-03T14:43:24;1.92;;;1.15;;
14760;SDS011;7472;45.396;5.272;2022-08-03T14:45:52;2.80;;;1.08;;
14760;SDS011;7472;45.396;5.272;2022-08-03T14:48:21;1.38;;;1.13;;
14760;SDS011;7472;45.396;5.272;2022-08-03T14:50:50;1.45;;;0.98;;
14760;SDS011;7472;45.396;5.272;2022-08-03T14:53:20;3.05;;;1.25;;
14760;SDS011;7472;45.396;5.272;2022-08-03T14:55:48;2.08;;;1.23;;
14760;SDS011;7472;45.396;5.272;2022-08-03T14:58:19;1.48;;;1.10;;
14760;SDS011;7472;45.396;5.272;2022-08-03T15:00:46;1.05;;;1.05;;
14760;SDS011;7472;45.396;5.272;2022-08-03T15:03:13;2.58;;;0.85;;
14760;SDS011;7472;45.396;5.272;2022-08-03T15:05:41;0.80;;;0.77;;
14760;SDS011;7472;45.396;5.272;2022-08-03T15:08:08;1.05;;;0.90;;
14760;SDS011;7472;45.396;5.272;2022-08-03T15:10:36;2.22;;;0.85;;
14760;SDS011;7472;45.396;5.272;2022-08-03T15:13:03;3.67;;;0.95;;
14760;SDS011;7472;45.396;5.272;2022-08-03T15:15:32;1.67;;;0.90;;
14760;SDS011;7472;45.396;5.272;2022-08-03T15:18:00;1.05;;;0.90;;
14760;SDS011;7472;45.396;5.272;2022-08-03T15:20:27;2.05;;;1.00;;
14760;SDS011;7472;45.396;5.272;2022-08-03T15:22:55;4.68;;;1.35;;
14760;SDS011;7472;45.396;5.272;2022-08-03T15:25:22;2.45;;;1.20;;
14760;SDS011;7472;45.396;5.272;2022-08-03T15:27:49;1.42;;;1.00;;
14760;SDS011;7472;45.396;5.272;2022-08-03T15:30:19;1.63;;;0.98;;
14760;SDS011;7472;45.396;5.272;2022-08-03T15:32:48;1.13;;;1.02;;
14760;SDS011;7472;45.396;5.272;2022-08-03T15:35:17;2.25;;;1.00;;